F\v Desperado — FVFQ — position and weather

sailwx.info

Track history (hours):
 
Tides and Currents Weather Stations Pressure Air Temp Water Temp Dewpoint Dewpoint Depression Visibility Wind Speed Wind Dir Waves Ship Positions

F\v Desperado

Last reported at 2017-Jan-17 20:20 UTC. Time now 2017-Jan-18 01:47 UTC.
Position N 47°35' W 003°50'.

Type: Fishing. MMSI: 228312000.

Date/timePositionNaut miles runAvg speedWind from/ knotsBaromVisibWave heightAir tempDewpointWater temp
2017-Jan-17 20:20N 47°35' W 003°50'6 8.2
2017-Jan-17 19:33N 47°29' W 003°46'18 8.3
2017-Jan-17 17:24N 47°13' W 003°33'  
2017-Jan-14 09:26N 46°24' W 002°12'7 8.6
2017-Jan-14 08:34N 46°25' W 002°01'8 8.5
2017-Jan-14 07:33N 46°27' W 001°49'3 0.4
2017-Jan-13 22:21N 46°30' W 001°47'0 0.0
2017-Jan-13 21:33N 46°30' W 001°47'0 0.0
2017-Jan-13 20:33N 46°30' W 001°47'0 0.0
2017-Jan-13 19:33N 46°30' W 001°47'0 0.0
2017-Jan-13 18:33N 46°30' W 001°47'0 0.0
2017-Jan-13 17:33N 46°30' W 001°47'0 0.0
2017-Jan-13 16:33N 46°30' W 001°47'0 0.0
2017-Jan-13 15:33N 46°30' W 001°47'0 0.0
2017-Jan-13 14:33N 46°30' W 001°47'0 0.0
2017-Jan-13 13:33N 46°30' W 001°47'0 0.0
2017-Jan-13 12:33N 46°30' W 001°47'0 0.0
2017-Jan-13 11:33N 46°30' W 001°47'0 0.0
2017-Jan-13 10:33N 46°30' W 001°47'0 0.0
2017-Jan-13 09:33N 46°30' W 001°47'0 0.0
2017-Jan-13 08:33N 46°30' W 001°47'0 0.0
2017-Jan-13 07:33N 46°30' W 001°47'0 0.0
2017-Jan-13 06:33N 46°30' W 001°47'0 0.0
2017-Jan-13 05:33N 46°30' W 001°47'0 0.0
2017-Jan-13 04:33N 46°30' W 001°47'0 0.0
2017-Jan-13 03:33N 46°30' W 001°47'0 0.0
2017-Jan-13 02:33N 46°30' W 001°47'0 0.0
2017-Jan-13 01:33N 46°30' W 001°47'0 0.0
2017-Jan-13 00:33N 46°30' W 001°47'0 0.0
2017-Jan-12 23:33N 46°30' W 001°47'0 0.0
2017-Jan-12 22:33N 46°30' W 001°47'0 0.0
2017-Jan-12 21:33N 46°30' W 001°47'0 0.0
2017-Jan-12 20:33N 46°30' W 001°47'0 0.0
2017-Jan-12 19:33N 46°30' W 001°47'0 0.0
2017-Jan-12 18:33N 46°30' W 001°47'0 0.0
2017-Jan-12 17:33N 46°30' W 001°47'0 0.0
2017-Jan-12 16:33N 46°30' W 001°47'0 0.0
2017-Jan-12 15:33N 46°30' W 001°47'0 0.0
2017-Jan-12 14:33N 46°30' W 001°47'0 0.0
2017-Jan-11 11:11N 46°30' W 001°47'2 2.9
2017-Jan-11 10:33N 46°28' W 001°48'9 8.5
2017-Jan-11 09:34N 46°28' W 001°60'101 2.0
2017-Jan-09 06:15N 47°31' W 003°56'6 8.2
2017-Jan-09 05:33N 47°36' W 003°54'12 8.4
2017-Jan-09 04:08N 47°48' W 003°56'2 0.6
2017-Jan-09 00:11N 47°46' W 003°55'5 8.3
2017-Jan-08 23:32N 47°40' W 003°54'8 8.2
2017-Jan-08 22:33N 47°33' W 003°49'8 8.2
2017-Jan-08 21:32N 47°26' W 003°43'8 8.2
2017-Jan-08 20:33N 47°19' W 003°37'9 8.5
2017-Jan-08 19:33N 47°11' W 003°31'4 4.4
2017-Jan-08 18:33N 47°08' W 003°27'  
Track history (hours):
 
Tides and Currents Weather Stations Pressure Air Temp Water Temp Dewpoint Dewpoint Depression Visibility Wind Speed Wind Dir Waves Ship Positions

F\v Desperado

Last reported at 2017-Jan-17 20:20 UTC. Time now 2017-Jan-18 01:47 UTC.
Position N 47°35' W 003°50'.

Type: Fishing. MMSI: 228312000.

Date/timePositionNaut miles runAvg speedWind from/ knotsBaromVisibWave heightAir tempDewpointWater temp
2017-Jan-17 20:20N 47°35' W 003°50'6 8.2
2017-Jan-17 19:33N 47°29' W 003°46'18 8.3
2017-Jan-17 17:24N 47°13' W 003°33'  
2017-Jan-14 09:26N 46°24' W 002°12'7 8.6
2017-Jan-14 08:34N 46°25' W 002°01'8 8.5
2017-Jan-14 07:33N 46°27' W 001°49'3 0.4
2017-Jan-13 22:21N 46°30' W 001°47'0 0.0
2017-Jan-13 21:33N 46°30' W 001°47'0 0.0
2017-Jan-13 20:33N 46°30' W 001°47'0 0.0
2017-Jan-13 19:33N 46°30' W 001°47'0 0.0
2017-Jan-13 18:33N 46°30' W 001°47'0 0.0
2017-Jan-13 17:33N 46°30' W 001°47'0 0.0
2017-Jan-13 16:33N 46°30' W 001°47'0 0.0
2017-Jan-13 15:33N 46°30' W 001°47'0 0.0
2017-Jan-13 14:33N 46°30' W 001°47'0 0.0
2017-Jan-13 13:33N 46°30' W 001°47'0 0.0
2017-Jan-13 12:33N 46°30' W 001°47'0 0.0
2017-Jan-13 11:33N 46°30' W 001°47'0 0.0
2017-Jan-13 10:33N 46°30' W 001°47'0 0.0
2017-Jan-13 09:33N 46°30' W 001°47'0 0.0
2017-Jan-13 08:33N 46°30' W 001°47'0 0.0
2017-Jan-13 07:33N 46°30' W 001°47'0 0.0
2017-Jan-13 06:33N 46°30' W 001°47'0 0.0
2017-Jan-13 05:33N 46°30' W 001°47'0 0.0
2017-Jan-13 04:33N 46°30' W 001°47'0 0.0
2017-Jan-13 03:33N 46°30' W 001°47'0 0.0
2017-Jan-13 02:33N 46°30' W 001°47'0 0.0
2017-Jan-13 01:33N 46°30' W 001°47'0 0.0
2017-Jan-13 00:33N 46°30' W 001°47'0 0.0
2017-Jan-12 23:33N 46°30' W 001°47'0 0.0
2017-Jan-12 22:33N 46°30' W 001°47'0 0.0
2017-Jan-12 21:33N 46°30' W 001°47'0 0.0
2017-Jan-12 20:33N 46°30' W 001°47'0 0.0
2017-Jan-12 19:33N 46°30' W 001°47'0 0.0
2017-Jan-12 18:33N 46°30' W 001°47'0 0.0
2017-Jan-12 17:33N 46°30' W 001°47'0 0.0
2017-Jan-12 16:33N 46°30' W 001°47'0 0.0
2017-Jan-12 15:33N 46°30' W 001°47'0 0.0
2017-Jan-12 14:33N 46°30' W 001°47'0 0.0
2017-Jan-11 11:11N 46°30' W 001°47'2 2.9
2017-Jan-11 10:33N 46°28' W 001°48'9 8.5
2017-Jan-11 09:34N 46°28' W 001°60'101 2.0
2017-Jan-09 06:15N 47°31' W 003°56'6 8.2
2017-Jan-09 05:33N 47°36' W 003°54'12 8.4
2017-Jan-09 04:08N 47°48' W 003°56'2 0.6
2017-Jan-09 00:11N 47°46' W 003°55'5 8.3
2017-Jan-08 23:32N 47°40' W 003°54'8 8.2
2017-Jan-08 22:33N 47°33' W 003°49'8 8.2
2017-Jan-08 21:32N 47°26' W 003°43'8 8.2
2017-Jan-08 20:33N 47°19' W 003°37'9 8.5
2017-Jan-08 19:33N 47°11' W 003°31'4 4.4
2017-Jan-08 18:33N 47°08' W 003°27'  

Dump ship's entire track history